sensor_id;sensor_type;location;lat;lon;timestamp;temperature;humidity
17984;DHT22;9117;52.420;20.728;2023-05-07T00:02:00;5.90;99.90
17984;DHT22;9117;52.420;20.728;2023-05-07T00:04:28;5.90;99.90
17984;DHT22;9117;52.420;20.728;2023-05-07T00:07:02;5.90;99.90
17984;DHT22;9117;52.420;20.728;2023-05-07T00:09:30;5.80;99.90
17984;DHT22;9117;52.420;20.728;2023-05-07T00:11:58;5.80;99.90
17984;DHT22;9117;52.420;20.728;2023-05-07T00:14:27;5.80;99.90
17984;DHT22;9117;52.420;20.728;2023-05-07T00:16:56;5.80;99.90
17984;DHT22;9117;52.420;20.728;2023-05-07T00:19:25;5.80;99.90
17984;DHT22;9117;52.420;20.728;2023-05-07T00:21:53;5.80;99.90
17984;DHT22;9117;52.420;20.728;2023-05-07T00:24:22;5.80;99.90
17984;DHT22;9117;52.420;20.728;2023-05-07T00:26:50;5.80;99.90
17984;DHT22;9117;52.420;20.728;2023-05-07T00:29:19;5.80;99.90
17984;DHT22;9117;52.420;20.728;2023-05-07T00:31:49;5.80;99.90
17984;DHT22;9117;52.420;20.728;2023-05-07T00:34:20;5.80;99.90
17984;DHT22;9117;52.420;20.728;2023-05-07T00:36:48;5.80;99.90
17984;DHT22;9117;52.420;20.728;2023-05-07T00:39:16;5.80;99.90
17984;DHT22;9117;52.420;20.728;2023-05-07T00:41:44;5.90;99.90
17984;DHT22;9117;52.420;20.728;2023-05-07T00:44:12;5.80;99.90
17984;DHT22;9117;52.420;20.728;2023-05-07T00:46:41;5.90;99.90
17984;DHT22;9117;52.420;20.728;2023-05-07T00:49:09;5.80;99.90
17984;DHT22;9117;52.420;20.728;2023-05-07T00:51:38;5.90;99.90
17984;DHT22;9117;52.420;20.728;2023-05-07T00:54:08;5.80;99.90
17984;DHT22;9117;52.420;20.728;2023-05-07T00:56:36;5.90;99.90
17984;DHT22;9117;52.420;20.728;2023-05-07T00:59:06;5.90;99.90
17984;DHT22;9117;52.420;20.728;2023-05-07T01:01:34;6.00;99.90
17984;DHT22;9117;52.420;20.728;2023-05-07T01:04:03;6.00;99.90
17984;DHT22;9117;52.420;20.728;2023-05-07T01:06:32;5.90;99.90
17984;DHT22;9117;52.420;20.728;2023-05-07T01:09:03;6.00;99.90
17984;DHT22;9117;52.420;20.728;2023-05-07T01:11:31;5.90;99.90
17984;DHT22;9117;52.420;20.728;2023-05-07T01:14:00;5.90;99.90
17984;DHT22;9117;52.420;20.728;2023-05-07T01:16:28;6.00;99.90
17984;DHT22;9117;52.420;20.728;2023-05-07T01:18:56;6.00;99.90
17984;DHT22;9117;52.420;20.728;2023-05-07T01:21:26;5.90;99.90
17984;DHT22;9117;52.420;20.728;2023-05-07T01:23:56;5.90;99.90
17984;DHT22;9117;52.420;20.728;2023-05-07T01:26:25;5.90;99.90
17984;DHT22;9117;52.420;20.728;2023-05-07T01:28:53;5.90;99.90
17984;DHT22;9117;52.420;20.728;2023-05-07T01:31:24;5.80;99.90
17984;DHT22;9117;52.420;20.728;2023-05-07T01:33:53;5.80;99.90
17984;DHT22;9117;52.420;20.728;2023-05-07T01:36:22;5.80;99.90
17984;DHT22;9117;52.420;20.728;2023-05-07T01:38:54;5.80;99.90
17984;DHT22;9117;52.420;20.728;2023-05-07T01:41:25;5.80;99.90
17984;DHT22;9117;52.420;20.728;2023-05-07T01:43:54;5.70;99.90
17984;DHT22;9117;52.420;20.728;2023-05-07T01:46:22;5.70;99.90
17984;DHT22;9117;52.420;20.728;2023-05-07T01:48:51;5.70;99.90
17984;DHT22;9117;52.420;20.728;2023-05-07T01:51:21;5.70;99.90
17984;DHT22;9117;52.420;20.728;2023-05-07T01:53:49;5.70;99.90
17984;DHT22;9117;52.420;20.728;2023-05-07T01:56:21;5.60;99.90
17984;DHT22;9117;52.420;20.728;2023-05-07T01:58:50;5.60;99.90
17984;DHT22;9117;52.420;20.728;2023-05-07T02:01:18;5.60;99.90
17984;DHT22;9117;52.420;20.728;2023-05-07T02:03:47;5.60;99.90
17984;DHT22;9117;52.420;20.728;2023-05-07T02:06:16;5.60;99.90
17984;DHT22;9117;52.420;20.728;2023-05-07T02:08:44;5.60;99.90
17984;DHT22;9117;52.420;20.728;2023-05-07T02:11:12;5.70;99.90
17984;DHT22;9117;52.420;20.728;2023-05-07T02:13:42;5.70;99.90
17984;DHT22;9117;52.420;20.728;2023-05-07T02:16:10;5.60;99.90
17984;DHT22;9117;52.420;20.728;2023-05-07T02:18:41;5.60;99.90
17984;DHT22;9117;52.420;20.728;2023-05-07T02:21:09;5.60;99.90
17984;DHT22;9117;52.420;20.728;2023-05-07T02:23:37;5.60;99.90
17984;DHT22;9117;52.420;20.728;2023-05-07T02:26:05;5.60;99.90
17984;DHT22;9117;52.420;20.728;2023-05-07T02:28:34;5.60;99.90
17984;DHT22;9117;52.420;20.728;2023-05-07T02:31:04;5.60;99.90
17984;DHT22;9117;52.420;20.728;2023-05-07T02:33:32;5.60;99.90
17984;DHT22;9117;52.420;20.728;2023-05-07T02:36:08;5.60;99.90
17984;DHT22;9117;52.420;20.728;2023-05-07T02:38:37;5.60;99.90
17984;DHT22;9117;52.420;20.728;2023-05-07T02:41:05;5.50;99.90
17984;DHT22;9117;52.420;20.728;2023-05-07T02:43:34;5.50;99.90
17984;DHT22;9117;52.420;20.728;2023-05-07T02:46:04;5.60;99.90
17984;DHT22;9117;52.420;20.728;2023-05-07T02:48:33;5.50;99.90
17984;DHT22;9117;52.420;20.728;2023-05-07T02:51:03;5.50;99.90
17984;DHT22;9117;52.420;20.728;2023-05-07T02:53:32;5.50;99.90
17984;DHT22;9117;52.420;20.728;2023-05-07T02:56:01;5.50;99.90
17984;DHT22;9117;52.420;20.728;2023-05-07T02:58:29;5.50;99.90
17984;DHT22;9117;52.420;20.728;2023-05-07T03:00:57;5.50;99.90
17984;DHT22;9117;52.420;20.728;2023-05-07T03:03:27;5.50;99.90
17984;DHT22;9117;52.420;20.728;2023-05-07T03:05:55;5.40;99.90
17984;DHT22;9117;52.420;20.728;2023-05-07T03:08:24;5.50;99.90
17984;DHT22;9117;52.420;20.728;2023-05-07T03:10:52;5.40;99.90
17984;DHT22;9117;52.420;20.728;2023-05-07T03:13:20;5.40;99.90
17984;DHT22;9117;52.420;20.728;2023-05-07T03:15:48;5.50;99.90
17984;DHT22;9117;52.420;20.728;2023-05-07T03:18:17;5.40;99.90
17984;DHT22;9117;52.420;20.728;2023-05-07T03:20:48;5.50;99.90
17984;DHT22;9117;52.420;20.728;2023-05-07T03:23:16;5.50;99.90
17984;DHT22;9117;52.420;20.728;2023-05-07T03:25:45;5.50;99.90
17984;DHT22;9117;52.420;20.728;2023-05-07T03:28:13;5.50;99.90
17984;DHT22;9117;52.420;20.728;2023-05-07T03:30:41;5.50;99.90
17984;DHT22;9117;52.420;20.728;2023-05-07T03:33:09;5.50;99.90
17984;DHT22;9117;52.420;20.728;2023-05-07T03:35:37;5.50;99.90
17984;DHT22;9117;52.420;20.728;2023-05-07T03:38:07;5.50;99.90
17984;DHT22;9117;52.420;20.728;2023-05-07T03:40:35;5.50;99.90
17984;DHT22;9117;52.420;20.728;2023-05-07T03:43:03;5.50;99.90
17984;DHT22;9117;52.420;20.728;2023-05-07T03:45:32;5.50;99.90
17984;DHT22;9117;52.420;20.728;2023-05-07T03:48:00;5.50;99.90
17984;DHT22;9117;52.420;20.728;2023-05-07T03:50:28;5.50;99.90
17984;DHT22;9117;52.420;20.728;2023-05-07T03:52:56;5.50;99.90
17984;DHT22;9117;52.420;20.728;2023-05-07T03:55:26;5.50;99.90
17984;DHT22;9117;52.420;20.728;2023-05-07T03:57:54;5.60;99.90
17984;DHT22;9117;52.420;20.728;2023-05-07T04:00:23;5.60;99.90
17984;DHT22;9117;52.420;20.728;2023-05-07T04:02:51;5.60;99.90
17984;DHT22;9117;52.420;20.728;2023-05-07T04:05:19;5.40;99.90
17984;DHT22;9117;52.420;20.728;2023-05-07T04:07:48;5.60;99.90
17984;DHT22;9117;52.420;20.728;2023-05-07T04:10:16;5.60;99.90
17984;DHT22;9117;52.420;20.728;2023-05-07T04:12:45;5.60;99.90
17984;DHT22;9117;52.420;20.728;2023-05-07T04:15:14;5.60;99.90
17984;DHT22;9117;52.420;20.728;2023-05-07T04:17:42;5.60;99.90
17984;DHT22;9117;52.420;20.728;2023-05-07T04:20:13;5.60;99.90
17984;DHT22;9117;52.420;20.728;2023-05-07T04:22:42;5.60;99.90
17984;DHT22;9117;52.420;20.728;2023-05-07T04:25:10;5.60;99.90
17984;DHT22;9117;52.420;20.728;2023-05-07T04:27:38;5.70;99.90
17984;DHT22;9117;52.420;20.728;2023-05-07T04:30:09;5.70;99.90
17984;DHT22;9117;52.420;20.728;2023-05-07T04:32:38;5.70;99.90
17984;DHT22;9117;52.420;20.728;2023-05-07T04:35:07;5.80;99.90
17984;DHT22;9117;52.420;20.728;2023-05-07T04:37:35;5.70;99.90
17984;DHT22;9117;52.420;20.728;2023-05-07T04:40:04;5.80;99.90
17984;DHT22;9117;52.420;20.728;2023-05-07T04:42:32;5.80;99.90
17984;DHT22;9117;52.420;20.728;2023-05-07T04:45:01;5.80;99.90
17984;DHT22;9117;52.420;20.728;2023-05-07T04:47:31;5.80;99.90
17984;DHT22;9117;52.420;20.728;2023-05-07T04:49:59;5.90;99.90
17984;DHT22;9117;52.420;20.728;2023-05-07T04:52:27;5.90;99.90
17984;DHT22;9117;52.420;20.728;2023-05-07T04:54:56;5.90;99.90
17984;DHT22;9117;52.420;20.728;2023-05-07T04:57:24;5.90;99.90
17984;DHT22;9117;52.420;20.728;2023-05-07T04:59:53;5.90;99.90
17984;DHT22;9117;52.420;20.728;2023-05-07T05:02:21;5.90;99.90
17984;DHT22;9117;52.420;20.728;2023-05-07T05:04:51;5.90;99.90
17984;DHT22;9117;52.420;20.728;2023-05-07T05:07:19;5.90;99.90
17984;DHT22;9117;52.420;20.728;2023-05-07T05:09:47;6.00;99.90
17984;DHT22;9117;52.420;20.728;2023-05-07T05:12:15;5.90;99.90
17984;DHT22;9117;52.420;20.728;2023-05-07T05:14:43;5.90;99.90
17984;DHT22;9117;52.420;20.728;2023-05-07T05:17:12;6.00;99.90
17984;DHT22;9117;52.420;20.728;2023-05-07T05:19:40;5.90;99.90
17984;DHT22;9117;52.420;20.728;2023-05-07T05:22:10;5.90;99.90
17984;DHT22;9117;52.420;20.728;2023-05-07T05:24:38;6.00;99.90
17984;DHT22;9117;52.420;20.728;2023-05-07T05:27:06;6.10;99.90
17984;DHT22;9117;52.420;20.728;2023-05-07T05:29:35;6.10;99.90
17984;DHT22;9117;52.420;20.728;2023-05-07T05:32:03;6.10;99.90
17984;DHT22;9117;52.420;20.728;2023-05-07T05:34:31;6.20;99.90
17984;DHT22;9117;52.420;20.728;2023-05-07T05:37:00;6.20;99.90
17984;DHT22;9117;52.420;20.728;2023-05-07T05:39:30;6.20;99.90
17984;DHT22;9117;52.420;20.728;2023-05-07T05:41:58;6.30;99.90
17984;DHT22;9117;52.420;20.728;2023-05-07T05:44:26;6.30;99.90
17984;DHT22;9117;52.420;20.728;2023-05-07T05:46:54;6.40;99.90
17984;DHT22;9117;52.420;20.728;2023-05-07T05:49:24;6.30;99.90
17984;DHT22;9117;52.420;20.728;2023-05-07T05:51:52;6.30;99.90
17984;DHT22;9117;52.420;20.728;2023-05-07T05:54:20;6.30;99.90
17984;DHT22;9117;52.420;20.728;2023-05-07T05:56:50;6.30;99.90
17984;DHT22;9117;52.420;20.728;2023-05-07T05:59:18;6.40;99.90
17984;DHT22;9117;52.420;20.728;2023-05-07T06:01:47;6.40;99.90
17984;DHT22;9117;52.420;20.728;2023-05-07T06:04:15;6.40;99.90
17984;DHT22;9117;52.420;20.728;2023-05-07T06:06:43;6.40;99.90
17984;DHT22;9117;52.420;20.728;2023-05-07T06:09:12;6.50;99.90
17984;DHT22;9117;52.420;20.728;2023-05-07T06:11:40;6.60;99.90
17984;DHT22;9117;52.420;20.728;2023-05-07T06:14:09;6.60;99.90
17984;DHT22;9117;52.420;20.728;2023-05-07T06:16:38;6.70;99.90
17984;DHT22;9117;52.420;20.728;2023-05-07T06:19:06;6.80;99.90
17984;DHT22;9117;52.420;20.728;2023-05-07T06:21:34;6.80;99.90
17984;DHT22;9117;52.420;20.728;2023-05-07T06:24:02;7.00;99.90
17984;DHT22;9117;52.420;20.728;2023-05-07T06:26:31;7.10;99.90
17984;DHT22;9117;52.420;20.728;2023-05-07T06:28:59;7.20;99.90
17984;DHT22;9117;52.420;20.728;2023-05-07T06:31:29;7.30;99.90
17984;DHT22;9117;52.420;20.728;2023-05-07T06:33:58;7.50;99.90
17984;DHT22;9117;52.420;20.728;2023-05-07T06:36:29;7.40;99.90
17984;DHT22;9117;52.420;20.728;2023-05-07T06:38:57;7.40;99.90
17984;DHT22;9117;52.420;20.728;2023-05-07T06:41:25;7.60;99.90
17984;DHT22;9117;52.420;20.728;2023-05-07T06:43:53;7.50;99.90
17984;DHT22;9117;52.420;20.728;2023-05-07T06:46:21;7.60;99.90
17984;DHT22;9117;52.420;20.728;2023-05-07T06:48:52;7.50;99.90
17984;DHT22;9117;52.420;20.728;2023-05-07T06:51:20;7.70;99.90
17984;DHT22;9117;52.420;20.728;2023-05-07T06:53:48;7.90;99.90
17984;DHT22;9117;52.420;20.728;2023-05-07T06:56:16;8.00;99.90
17984;DHT22;9117;52.420;20.728;2023-05-07T06:58:44;7.90;99.90
17984;DHT22;9117;52.420;20.728;2023-05-07T07:01:12;7.80;99.50
17984;DHT22;9117;52.420;20.728;2023-05-07T07:03:41;7.90;99.90
17984;DHT22;9117;52.420;20.728;2023-05-07T07:06:11;7.90;99.90
17984;DHT22;9117;52.420;20.728;2023-05-07T07:08:39;7.80;99.10
17984;DHT22;9117;52.420;20.728;2023-05-07T07:11:08;7.90;99.90
17984;DHT22;9117;52.420;20.728;2023-05-07T07:13:36;8.00;99.90
17984;DHT22;9117;52.420;20.728;2023-05-07T07:16:05;8.10;98.80
17984;DHT22;9117;52.420;20.728;2023-05-07T07:18:33;8.20;99.90
17984;DHT22;9117;52.420;20.728;2023-05-07T07:21:02;8.20;99.90
17984;DHT22;9117;52.420;20.728;2023-05-07T07:23:32;8.20;97.50
17984;DHT22;9117;52.420;20.728;2023-05-07T07:26:00;8.40;96.80
17984;DHT22;9117;52.420;20.728;2023-05-07T07:28:29;8.50;97.20
17984;DHT22;9117;52.420;20.728;2023-05-07T07:30:57;8.20;96.40
17984;DHT22;9117;52.420;20.728;2023-05-07T07:33:25;8.30;96.60
17984;DHT22;9117;52.420;20.728;2023-05-07T07:35:55;8.40;97.60
17984;DHT22;9117;52.420;20.728;2023-05-07T07:38:23;8.50;95.20
17984;DHT22;9117;52.420;20.728;2023-05-07T07:40:52;8.30;95.50
17984;DHT22;9117;52.420;20.728;2023-05-07T07:43:21;8.30;96.00
17984;DHT22;9117;52.420;20.728;2023-05-07T07:45:49;8.40;96.80
17984;DHT22;9117;52.420;20.728;2023-05-07T07:48:18;8.40;96.40
17984;DHT22;9117;52.420;20.728;2023-05-07T07:50:48;8.40;94.90
17984;DHT22;9117;52.420;20.728;2023-05-07T07:53:17;8.40;95.80
17984;DHT22;9117;52.420;20.728;2023-05-07T07:55:45;8.50;96.70
17984;DHT22;9117;52.420;20.728;2023-05-07T07:58:14;8.60;96.40
17984;DHT22;9117;52.420;20.728;2023-05-07T08:00:43;8.70;96.30
17984;DHT22;9117;52.420;20.728;2023-05-07T08:03:11;8.70;97.30
17984;DHT22;9117;52.420;20.728;2023-05-07T08:05:39;8.80;97.00
17984;DHT22;9117;52.420;20.728;2023-05-07T08:08:08;8.80;96.40
17984;DHT22;9117;52.420;20.728;2023-05-07T08:10:36;8.80;95.70
17984;DHT22;9117;52.420;20.728;2023-05-07T08:13:06;8.80;94.70
17984;DHT22;9117;52.420;20.728;2023-05-07T08:15:36;9.00;94.60
17984;DHT22;9117;52.420;20.728;2023-05-07T08:18:04;9.30;95.00
17984;DHT22;9117;52.420;20.728;2023-05-07T08:20:32;9.50;96.60
17984;DHT22;9117;52.420;20.728;2023-05-07T08:23:06;9.60;96.50
17984;DHT22;9117;52.420;20.728;2023-05-07T08:25:34;9.70;95.60
17984;DHT22;9117;52.420;20.728;2023-05-07T08:28:02;9.80;96.20
17984;DHT22;9117;52.420;20.728;2023-05-07T08:30:32;9.50;97.60
17984;DHT22;9117;52.420;20.728;2023-05-07T08:33:02;9.60;98.00
17984;DHT22;9117;52.420;20.728;2023-05-07T08:35:30;9.60;96.20
17984;DHT22;9117;52.420;20.728;2023-05-07T08:37:59;9.50;94.50
17984;DHT22;9117;52.420;20.728;2023-05-07T08:40:27;9.30;94.50
17984;DHT22;9117;52.420;20.728;2023-05-07T08:42:57;9.50;96.10
17984;DHT22;9117;52.420;20.728;2023-05-07T08:45:26;9.50;96.70
17984;DHT22;9117;52.420;20.728;2023-05-07T08:47:58;9.60;97.20
17984;DHT22;9117;52.420;20.728;2023-05-07T08:50:29;9.80;96.80
17984;DHT22;9117;52.420;20.728;2023-05-07T08:52:57;10.10;96.10
17984;DHT22;9117;52.420;20.728;2023-05-07T08:55:28;10.40;96.00
17984;DHT22;9117;52.420;20.728;2023-05-07T08:57:57;10.00;96.90
17984;DHT22;9117;52.420;20.728;2023-05-07T09:00:25;10.10;97.10
17984;DHT22;9117;52.420;20.728;2023-05-07T09:02:53;10.30;97.20
17984;DHT22;9117;52.420;20.728;2023-05-07T09:05:21;10.30;96.00
17984;DHT22;9117;52.420;20.728;2023-05-07T09:07:51;10.00;95.90
17984;DHT22;9117;52.420;20.728;2023-05-07T09:10:21;10.20;93.70
17984;DHT22;9117;52.420;20.728;2023-05-07T09:12:49;10.30;95.20
17984;DHT22;9117;52.420;20.728;2023-05-07T09:15:18;10.50;95.60
17984;DHT22;9117;52.420;20.728;2023-05-07T09:17:46;10.60;94.20
17984;DHT22;9117;52.420;20.728;2023-05-07T09:20:16;10.70;95.10
17984;DHT22;9117;52.420;20.728;2023-05-07T09:22:44;10.90;95.10
17984;DHT22;9117;52.420;20.728;2023-05-07T09:25:14;10.90;91.70
17984;DHT22;9117;52.420;20.728;2023-05-07T09:27:42;10.70;92.50
17984;DHT22;9117;52.420;20.728;2023-05-07T09:30:11;10.80;93.10
17984;DHT22;9117;52.420;20.728;2023-05-07T09:32:39;11.10;94.80
17984;DHT22;9117;52.420;20.728;2023-05-07T09:35:14;10.80;94.40
17984;DHT22;9117;52.420;20.728;2023-05-07T09:37:43;10.90;94.70
17984;DHT22;9117;52.420;20.728;2023-05-07T09:40:21;10.90;94.60
17984;DHT22;9117;52.420;20.728;2023-05-07T09:42:50;11.10;94.40
17984;DHT22;9117;52.420;20.728;2023-05-07T09:45:22;11.30;93.50
17984;DHT22;9117;52.420;20.728;2023-05-07T09:47:54;11.20;93.30
17984;DHT22;9117;52.420;20.728;2023-05-07T09:50:26;11.10;93.00
17984;DHT22;9117;52.420;20.728;2023-05-07T09:52:56;11.40;93.70
17984;DHT22;9117;52.420;20.728;2023-05-07T09:55:26;11.40;94.10
17984;DHT22;9117;52.420;20.728;2023-05-07T09:57:55;11.50;94.50
17984;DHT22;9117;52.420;20.728;2023-05-07T10:00:24;11.70;94.30
17984;DHT22;9117;52.420;20.728;2023-05-07T10:02:57;11.60;93.70
17984;DHT22;9117;52.420;20.728;2023-05-07T10:05:25;11.60;93.30
17984;DHT22;9117;52.420;20.728;2023-05-07T10:07:54;11.70;92.90
17984;DHT22;9117;52.420;20.728;2023-05-07T10:10:25;11.70;91.30
17984;DHT22;9117;52.420;20.728;2023-05-07T10:12:54;11.90;92.30
17984;DHT22;9117;52.420;20.728;2023-05-07T10:15:23;12.00;92.00
17984;DHT22;9117;52.420;20.728;2023-05-07T10:17:53;12.10;91.30
17984;DHT22;9117;52.420;20.728;2023-05-07T10:20:22;12.10;91.50
17984;DHT22;9117;52.420;20.728;2023-05-07T10:22:51;12.00;91.40
17984;DHT22;9117;52.420;20.728;2023-05-07T10:25:28;12.10;91.20
17984;DHT22;9117;52.420;20.728;2023-05-07T10:28:01;12.00;91.10
17984;DHT22;9117;52.420;20.728;2023-05-07T10:30:36;11.70;91.60
17984;DHT22;9117;52.420;20.728;2023-05-07T10:33:09;11.90;92.60
17984;DHT22;9117;52.420;20.728;2023-05-07T10:35:40;12.10;91.10
17984;DHT22;9117;52.420;20.728;2023-05-07T10:38:09;12.00;91.20
17984;DHT22;9117;52.420;20.728;2023-05-07T10:40:37;12.00;91.50
17984;DHT22;9117;52.420;20.728;2023-05-07T10:43:07;11.80;91.60
17984;DHT22;9117;52.420;20.728;2023-05-07T10:45:36;12.10;91.10
17984;DHT22;9117;52.420;20.728;2023-05-07T10:48:09;12.20;90.90
17984;DHT22;9117;52.420;20.728;2023-05-07T10:51:19;12.30;90.40
17984;DHT22;9117;52.420;20.728;2023-05-07T10:53:48;12.30;88.00
17984;DHT22;9117;52.420;20.728;2023-05-07T10:56:26;12.30;89.80
17984;DHT22;9117;52.420;20.728;2023-05-07T11:02:01;12.80;87.00
17984;DHT22;9117;52.420;20.728;2023-05-07T11:04:31;13.00;86.60
17984;DHT22;9117;52.420;20.728;2023-05-07T11:07:24;12.90;81.80
17984;DHT22;9117;52.420;20.728;2023-05-07T11:10:13;13.30;86.50
17984;DHT22;9117;52.420;20.728;2023-05-07T11:12:54;13.60;79.40
17984;DHT22;9117;52.420;20.728;2023-05-07T11:15:43;13.80;82.00
17984;DHT22;9117;52.420;20.728;2023-05-07T11:18:13;13.60;80.30
17984;DHT22;9117;52.420;20.728;2023-05-07T11:20:52;13.50;83.80
17984;DHT22;9117;52.420;20.728;2023-05-07T11:23:55;13.20;82.40
17984;DHT22;9117;52.420;20.728;2023-05-07T11:26:24;13.10;82.30
17984;DHT22;9117;52.420;20.728;2023-05-07T11:28:53;13.10;81.10
17984;DHT22;9117;52.420;20.728;2023-05-07T11:31:24;13.10;86.10
17984;DHT22;9117;52.420;20.728;2023-05-07T11:33:55;13.30;85.10
17984;DHT22;9117;52.420;20.728;2023-05-07T11:36:23;13.10;86.80
17984;DHT22;9117;52.420;20.728;2023-05-07T11:38:52;13.10;83.80
17984;DHT22;9117;52.420;20.728;2023-05-07T11:41:21;13.10;83.70
17984;DHT22;9117;52.420;20.728;2023-05-07T11:43:56;13.00;83.70
17984;DHT22;9117;52.420;20.728;2023-05-07T11:46:27;13.30;86.80
17984;DHT22;9117;52.420;20.728;2023-05-07T11:48:56;13.20;85.90
17984;DHT22;9117;52.420;20.728;2023-05-07T11:51:25;13.50;82.10
17984;DHT22;9117;52.420;20.728;2023-05-07T11:53:53;13.60;81.20
17984;DHT22;9117;52.420;20.728;2023-05-07T11:56:22;13.60;79.80
17984;DHT22;9117;52.420;20.728;2023-05-07T11:58:50;13.60;80.70
17984;DHT22;9117;52.420;20.728;2023-05-07T12:01:19;13.80;81.40
17984;DHT22;9117;52.420;20.728;2023-05-07T12:03:48;13.50;84.80
17984;DHT22;9117;52.420;20.728;2023-05-07T12:06:17;13.50;81.60
17984;DHT22;9117;52.420;20.728;2023-05-07T12:08:46;13.60;81.10
17984;DHT22;9117;52.420;20.728;2023-05-07T12:11:15;13.70;83.00
17984;DHT22;9117;52.420;20.728;2023-05-07T12:13:49;13.40;82.20
17984;DHT22;9117;52.420;20.728;2023-05-07T12:16:17;13.20;83.30
17984;DHT22;9117;52.420;20.728;2023-05-07T12:18:48;13.20;82.70
17984;DHT22;9117;52.420;20.728;2023-05-07T12:21:17;13.30;80.30
17984;DHT22;9117;52.420;20.728;2023-05-07T12:23:45;13.30;81.10
17984;DHT22;9117;52.420;20.728;2023-05-07T12:26:13;13.30;81.00
17984;DHT22;9117;52.420;20.728;2023-05-07T12:28:41;13.10;85.30
17984;DHT22;9117;52.420;20.728;2023-05-07T12:31:10;12.80;83.90
17984;DHT22;9117;52.420;20.728;2023-05-07T12:33:39;12.50;85.40
17984;DHT22;9117;52.420;20.728;2023-05-07T12:36:11;12.40;88.30
17984;DHT22;9117;52.420;20.728;2023-05-07T12:38:40;12.20;86.60
17984;DHT22;9117;52.420;20.728;2023-05-07T12:41:10;12.20;89.10
17984;DHT22;9117;52.420;20.728;2023-05-07T12:43:39;12.20;87.70
17984;DHT22;9117;52.420;20.728;2023-05-07T12:46:07;12.00;85.10
17984;DHT22;9117;52.420;20.728;2023-05-07T12:48:37;12.40;87.40
17984;DHT22;9117;52.420;20.728;2023-05-07T12:51:06;12.70;87.20
17984;DHT22;9117;52.420;20.728;2023-05-07T12:53:41;12.80;88.60
17984;DHT22;9117;52.420;20.728;2023-05-07T12:56:10;12.90;86.60
17984;DHT22;9117;52.420;20.728;2023-05-07T12:58:38;13.30;85.00
17984;DHT22;9117;52.420;20.728;2023-05-07T13:01:07;13.40;80.80
17984;DHT22;9117;52.420;20.728;2023-05-07T13:03:38;13.10;82.30
17984;DHT22;9117;52.420;20.728;2023-05-07T13:06:08;12.80;81.80
17984;DHT22;9117;52.420;20.728;2023-05-07T13:08:41;12.80;83.50
17984;DHT22;9117;52.420;20.728;2023-05-07T13:11:11;12.70;81.70
17984;DHT22;9117;52.420;20.728;2023-05-07T13:13:41;12.90;87.20
17984;DHT22;9117;52.420;20.728;2023-05-07T13:16:10;12.90;85.00
17984;DHT22;9117;52.420;20.728;2023-05-07T13:18:40;13.30;83.50
17984;DHT22;9117;52.420;20.728;2023-05-07T13:21:10;14.00;82.40
17984;DHT22;9117;52.420;20.728;2023-05-07T13:23:41;14.70;80.90
17984;DHT22;9117;52.420;20.728;2023-05-07T13:26:10;15.30;78.60
17984;DHT22;9117;52.420;20.728;2023-05-07T13:28:52;15.60;72.30
17984;DHT22;9117;52.420;20.728;2023-05-07T13:31:20;16.30;72.00
17984;DHT22;9117;52.420;20.728;2023-05-07T13:33:48;16.40;72.20
17984;DHT22;9117;52.420;20.728;2023-05-07T13:36:17;16.50;71.40
17984;DHT22;9117;52.420;20.728;2023-05-07T13:38:47;17.00;68.60
17984;DHT22;9117;52.420;20.728;2023-05-07T13:41:15;17.70;70.40
17984;DHT22;9117;52.420;20.728;2023-05-07T13:43:43;17.70;68.30
17984;DHT22;9117;52.420;20.728;2023-05-07T13:46:11;17.40;65.50
17984;DHT22;9117;52.420;20.728;2023-05-07T13:48:40;17.60;63.50
17984;DHT22;9117;52.420;20.728;2023-05-07T13:51:08;17.40;61.80
17984;DHT22;9117;52.420;20.728;2023-05-07T13:53:37;16.10;62.80
17984;DHT22;9117;52.420;20.728;2023-05-07T13:56:06;15.70;66.10
17984;DHT22;9117;52.420;20.728;2023-05-07T13:58:35;15.70;66.90
17984;DHT22;9117;52.420;20.728;2023-05-07T14:01:11;16.50;66.00
17984;DHT22;9117;52.420;20.728;2023-05-07T14:03:39;16.30;62.20
17984;DHT22;9117;52.420;20.728;2023-05-07T14:06:08;16.40;60.80
17984;DHT22;9117;52.420;20.728;2023-05-07T14:08:36;17.00;61.20
17984;DHT22;9117;52.420;20.728;2023-05-07T14:11:06;17.60;61.90
17984;DHT22;9117;52.420;20.728;2023-05-07T14:13:34;17.80;62.20
17984;DHT22;9117;52.420;20.728;2023-05-07T14:16:04;18.20;58.40
17984;DHT22;9117;52.420;20.728;2023-05-07T14:18:32;18.50;58.90
17984;DHT22;9117;52.420;20.728;2023-05-07T14:21:04;18.60;56.40
17984;DHT22;9117;52.420;20.728;2023-05-07T14:23:34;17.30;57.10
17984;DHT22;9117;52.420;20.728;2023-05-07T14:26:02;16.90;58.70
17984;DHT22;9117;52.420;20.728;2023-05-07T14:28:32;17.30;59.20
17984;DHT22;9117;52.420;20.728;2023-05-07T14:31:00;17.40;57.00
17984;DHT22;9117;52.420;20.728;2023-05-07T14:33:29;17.80;56.90
17984;DHT22;9117;52.420;20.728;2023-05-07T14:35:57;18.10;58.00
17984;DHT22;9117;52.420;20.728;2023-05-07T14:38:25;18.00;56.70
17984;DHT22;9117;52.420;20.728;2023-05-07T14:40:53;18.00;56.00
17984;DHT22;9117;52.420;20.728;2023-05-07T14:43:23;16.80;56.40
17984;DHT22;9117;52.420;20.728;2023-05-07T14:45:52;17.00;55.60
17984;DHT22;9117;52.420;20.728;2023-05-07T14:48:20;16.20;54.50
17984;DHT22;9117;52.420;20.728;2023-05-07T14:50:49;16.10;55.30
17984;DHT22;9117;52.420;20.728;2023-05-07T14:53:17;16.50;54.60
17984;DHT22;9117;52.420;20.728;2023-05-07T14:55:47;17.40;54.60
17984;DHT22;9117;52.420;20.728;2023-05-07T14:58:15;17.90;51.40
17984;DHT22;9117;52.420;20.728;2023-05-07T15:00:43;18.80;52.80
17984;DHT22;9117;52.420;20.728;2023-05-07T15:03:14;19.00;48.30
17984;DHT22;9117;52.420;20.728;2023-05-07T15:05:42;19.50;47.60
17984;DHT22;9117;52.420;20.728;2023-05-07T15:08:10;20.30;48.10
17984;DHT22;9117;52.420;20.728;2023-05-07T15:10:39;20.40;43.90
17984;DHT22;9117;52.420;20.728;2023-05-07T15:13:09;20.40;44.90
17984;DHT22;9117;52.420;20.728;2023-05-07T15:15:42;21.00;43.50
17984;DHT22;9117;52.420;20.728;2023-05-07T15:18:12;20.20;42.60
17984;DHT22;9117;52.420;20.728;2023-05-07T15:20:41;20.60;42.40
17984;DHT22;9117;52.420;20.728;2023-05-07T15:23:10;20.10;40.30
17984;DHT22;9117;52.420;20.728;2023-05-07T15:25:39;20.20;44.00
17984;DHT22;9117;52.420;20.728;2023-05-07T15:28:07;20.40;43.10
17984;DHT22;9117;52.420;20.728;2023-05-07T15:30:35;21.20;41.60
17984;DHT22;9117;52.420;20.728;2023-05-07T15:33:04;20.70;39.80
17984;DHT22;9117;52.420;20.728;2023-05-07T15:35:33;21.00;41.80
17984;DHT22;9117;52.420;20.728;2023-05-07T15:38:02;20.10;41.50
17984;DHT22;9117;52.420;20.728;2023-05-07T15:40:30;19.70;39.90
17984;DHT22;9117;52.420;20.728;2023-05-07T15:42:59;20.30;41.40
17984;DHT22;9117;52.420;20.728;2023-05-07T15:45:28;20.50;40.60
17984;DHT22;9117;52.420;20.728;2023-05-07T15:47:57;20.50;40.40
17984;DHT22;9117;52.420;20.728;2023-05-07T15:50:25;19.90;41.30
17984;DHT22;9117;52.420;20.728;2023-05-07T15:52:56;20.20;40.40
17984;DHT22;9117;52.420;20.728;2023-05-07T15:55:28;20.40;37.80
17984;DHT22;9117;52.420;20.728;2023-05-07T15:57:57;20.30;40.20